Time;durP1;ratioP1;P1;durP2;ratioP2;P2;SDS_P1;SDS_P2;PMS_P1;PMS_P2;Temp;Humidity;BMP_temperature;BMP_pressure;BME280_temperature;BME280_humidity;BME280_pressure;Samples;Min_cycle;Max_cycle;Signal;HPM_P1;HPM_P2
2023/01/18 00:01:07;;;;;;;12.83;5.73;;;-0.20;99.90;;;;;;4831917;29;20052;-87
2023/01/18 00:03:34;;;;;;;7.07;5.53;;;-0.20;99.90;;;;;;4854816;29;20066;-86
2023/01/18 00:06:04;;;;;;;6.10;5.50;;;-0.20;99.90;;;;;;4848154;29;20059;-86
2023/01/18 00:08:32;;;;;;;8.03;5.50;;;-0.20;99.90;;;;;;4844885;29;20048;-86
2023/01/18 00:11:14;;;;;;;6.93;6.23;;;-0.20;99.90;;;;;;4844960;29;20072;-86
2023/01/18 00:13:40;;;;;;;8.75;6.38;;;-0.20;99.90;;;;;;4845316;29;20048;-86
2023/01/18 00:16:11;;;;;;;11.20;6.50;;;-0.30;99.90;;;;;;4844528;29;20546;-87
2023/01/18 00:18:37;;;;;;;9.75;6.82;;;-0.30;99.90;;;;;;4844473;29;20169;-87
2023/01/18 00:21:08;;;;;;;7.90;6.37;;;-0.40;99.90;;;;;;4831857;29;20504;-86
2023/01/18 00:23:34;;;;;;;7.45;6.15;;;-0.40;99.90;;;;;;4843530;29;20081;-86
2023/01/18 00:26:02;;;;;;;9.70;6.43;;;-0.40;99.90;;;;;;4851874;29;20659;-86
2023/01/18 00:28:28;;;;;;;10.17;6.97;;;-0.40;99.90;;;;;;4846058;29;20071;-86
2023/01/18 00:30:54;;;;;;;8.20;6.27;;;-0.40;99.90;;;;;;4844844;29;20100;-86
2023/01/18 00:33:20;;;;;;;9.60;6.40;;;-0.40;99.90;;;;;;4861798;29;20049;-86
2023/01/18 00:36:00;;;;;;;9.57;6.73;;;-0.50;99.90;;;;;;4845551;29;20049;-87
2023/01/18 00:38:27;;;;;;;7.43;5.97;;;-0.50;99.90;;;;;;4846160;29;20046;-87
2023/01/18 00:40:53;;;;;;;7.53;6.47;;;-0.50;99.90;;;;;;4826906;29;20088;-87
2023/01/18 00:46:07;;;;;;;8.20;6.93;;;-0.50;99.90;;;;;;4856869;29;20564;-86
2023/01/18 00:48:34;;;;;;;8.53;6.37;;;-0.50;99.90;;;;;;4846045;29;20041;-87
2023/01/18 00:51:00;;;;;;;7.93;6.50;;;-0.40;99.90;;;;;;4851885;29;20128;-87
2023/01/18 00:53:26;;;;;;;7.03;6.23;;;-0.40;99.90;;;;;;4849140;29;20101;-87
2023/01/18 00:55:52;;;;;;;9.13;7.00;;;-0.40;99.90;;;;;;4843566;29;20045;-88
2023/01/18 00:58:18;;;;;;;11.87;7.27;;;-0.40;99.90;;;;;;4861122;29;20060;-88
2023/01/18 01:00:44;;;;;;;10.23;7.40;;;-0.50;99.90;;;;;;4861773;29;20053;-88
2023/01/18 01:03:11;;;;;;;7.60;6.67;;;-0.50;99.90;;;;;;4851925;29;20183;-87
2023/01/18 01:08:22;;;;;;;9.40;7.33;;;-0.50;99.90;;;;;;4877624;29;20080;-88
2023/01/18 01:10:49;;;;;;;8.43;6.93;;;-0.50;99.90;;;;;;4851829;29;20057;-88
2023/01/18 01:27:02;;;;;;;10.03;7.57;;;-0.60;99.90;;;;;;4842444;29;20447;-87
2023/01/18 01:29:28;;;;;;;8.80;7.10;;;-0.60;99.90;;;;;;4827139;29;20046;-88
2023/01/18 01:31:53;;;;;;;9.63;7.57;;;-0.60;99.90;;;;;;4812705;29;20045;-87
2023/01/18 01:34:19;;;;;;;12.60;7.73;;;-0.60;99.90;;;;;;4846519;29;20045;-87
2023/01/18 01:36:45;;;;;;;9.23;7.80;;;-0.60;99.90;;;;;;4835916;29;20045;-88
2023/01/18 01:39:10;;;;;;;11.03;8.17;;;-0.60;99.90;;;;;;4842515;29;20482;-87
2023/01/18 01:41:37;;;;;;;10.70;8.23;;;-0.60;99.90;;;;;;4843159;29;20048;-87
2023/01/18 01:44:23;;;;;;;10.13;7.67;;;-0.60;99.90;;;;;;4843285;29;20519;-87
2023/01/18 01:46:54;;;;;;;11.10;7.97;;;-0.60;99.90;;;;;;4861302;29;20063;-87
2023/01/18 01:49:27;;;;;;;12.35;7.93;;;-0.60;99.90;;;;;;4861777;29;20049;-87
2023/01/18 01:52:01;;;;;;;10.13;7.93;;;-0.60;99.90;;;;;;4810144;29;20072;-87
2023/01/18 01:54:27;;;;;;;10.00;8.03;;;-0.60;99.90;;;;;;4825147;29;20038;-87
2023/01/18 01:56:58;;;;;;;10.20;8.03;;;-0.60;99.90;;;;;;4838764;29;20052;-86
2023/01/18 01:59:24;;;;;;;10.97;7.53;;;-0.60;99.90;;;;;;4843807;29;20061;-87
2023/01/18 02:01:49;;;;;;;10.30;8.77;;;-0.70;99.90;;;;;;4854197;29;20038;-87
2023/01/18 02:04:15;;;;;;;10.67;8.43;;;-0.70;99.90;;;;;;4861734;29;20093;-87
2023/01/18 02:06:41;;;;;;;9.70;7.77;;;-0.60;99.90;;;;;;4811089;29;20129;-87
2023/01/18 02:09:11;;;;;;;8.40;7.47;;;-0.70;99.90;;;;;;4822102;29;20069;-87
2023/01/18 02:11:38;;;;;;;11.77;8.50;;;-0.70;99.90;;;;;;4842450;29;20109;-87
2023/01/18 02:14:09;;;;;;;10.43;9.10;;;-0.70;99.90;;;;;;4811142;29;20128;-87
2023/01/18 02:17:05;;;;;;;11.13;9.00;;;-0.70;99.90;;;;;;4841864;29;20033;-86
2023/01/18 02:19:55;;;;;;;11.17;8.97;;;-0.70;99.90;;;;;;4847821;29;20055;-87
2023/01/18 02:22:44;;;;;;;12.33;9.73;;;-0.80;99.90;;;;;;4870319;29;20094;-87
2023/01/18 02:25:41;;;;;;;12.20;9.87;;;-0.80;99.90;;;;;;4849491;29;20041;-87
2023/01/18 02:28:13;;;;;;;12.50;8.80;;;-0.80;99.90;;;;;;4870008;29;20069;-87
2023/01/18 02:31:21;;;;;;;10.95;9.38;;;-0.80;99.90;;;;;;4875644;29;20563;-87
2023/01/18 02:33:58;;;;;;;10.70;8.90;;;-0.80;99.90;;;;;;4824468;29;20069;-87
2023/01/18 02:37:03;;;;;;;13.70;9.70;;;-0.80;99.90;;;;;;4833705;29;20046;-87
2023/01/18 02:39:53;;;;;;;10.63;8.83;;;-0.80;99.90;;;;;;4848421;29;20078;-87
2023/01/18 02:47:55;;;;;;;11.37;9.17;;;-0.70;99.90;;;;;;4846004;29;20101;-87
2023/01/18 02:50:30;;;;;;;11.40;8.40;;;-0.70;99.90;;;;;;4835228;29;20045;-87
2023/01/18 02:52:56;;;;;;;12.23;9.60;;;-0.60;99.90;;;;;;4849297;29;20037;-87
2023/01/18 02:55:29;;;;;;;10.47;9.37;;;-0.60;99.90;;;;;;4864290;29;20083;-87
2023/01/18 02:58:03;;;;;;;12.73;9.87;;;-0.70;99.90;;;;;;4879893;29;20049;-87
2023/01/18 03:00:32;;;;;;;13.70;9.57;;;-0.70;99.90;;;;;;4845719;29;20136;-87
2023/01/18 03:02:59;;;;;;;11.20;9.07;;;-0.70;99.90;;;;;;4845666;29;20041;-86
2023/01/18 03:05:26;;;;;;;13.60;10.03;;;-0.70;99.90;;;;;;4846114;29;20081;-87
2023/01/18 03:08:04;;;;;;;12.33;10.07;;;-0.80;99.90;;;;;;4827485;29;20098;-87
2023/01/18 03:10:36;;;;;;;14.47;10.70;;;-0.80;99.90;;;;;;4836821;29;20124;-87
2023/01/18 03:13:11;;;;;;;;;;;-0.80;99.90;;;;;;4830947;29;20057;-87
2023/01/18 03:15:48;;;;;;;16.57;11.43;;;-0.90;99.90;;;;;;4842170;29;20010;-87
2023/01/18 03:18:20;;;;;;;14.97;11.60;;;-0.90;99.90;;;;;;4845953;29;20398;-87
2023/01/18 03:20:51;;;;;;;13.65;11.40;;;-0.90;99.90;;;;;;4845681;29;20060;-86
2023/01/18 03:23:38;;;;;;;13.40;10.17;;;-0.90;99.90;;;;;;4847636;29;20045;-87
2023/01/18 03:26:07;;;;;;;15.23;10.77;;;-0.90;99.90;;;;;;4851175;29;20108;-87
2023/01/18 03:34:51;;;;;;;17.55;12.98;;;-1.00;99.90;;;;;;4842344;29;20053;-87
2023/01/18 03:37:30;;;;;;;15.90;12.20;;;-1.00;99.90;;;;;;4860751;29;20081;-87
2023/01/18 03:40:00;;;;;;;16.57;13.10;;;-1.00;99.90;;;;;;4830455;29;20105;-88
2023/01/18 03:42:51;;;;;;;15.17;12.37;;;-1.00;99.90;;;;;;4860759;29;20047;-87
2023/01/18 03:45:48;;;;;;;17.07;13.23;;;-1.00;99.90;;;;;;4860462;29;20045;-86
2023/01/18 03:48:14;;;;;;;15.40;13.20;;;-1.00;99.90;;;;;;4826455;29;20122;-87
2023/01/18 03:51:10;;;;;;;16.43;13.20;;;-1.00;99.90;;;;;;4847739;29;20101;-88
2023/01/18 03:53:49;;;;;;;17.10;13.70;;;-1.00;99.90;;;;;;4860027;29;20081;-86
2023/01/18 03:56:24;;;;;;;16.37;12.43;;;-1.10;99.90;;;;;;4857656;29;20045;-87
2023/01/18 03:58:54;;;;;;;14.90;12.97;;;-1.00;99.90;;;;;;4837250;29;20408;-86
2023/01/18 04:01:20;;;;;;;16.97;13.57;;;-1.00;99.90;;;;;;4847975;29;20048;-87
2023/01/18 04:03:46;;;;;;;18.23;13.20;;;-1.00;99.90;;;;;;4833168;29;20049;-87
2023/01/18 04:06:11;;;;;;;17.30;13.07;;;-1.10;99.90;;;;;;4840938;29;20051;-88
2023/01/18 04:08:37;;;;;;;16.77;12.73;;;-1.10;99.90;;;;;;4878140;29;20033;-88
2023/01/18 04:11:03;;;;;;;15.77;12.77;;;-1.10;99.90;;;;;;4829541;29;20101;-88
2023/01/18 04:13:29;;;;;;;17.23;13.50;;;-1.10;99.90;;;;;;4843579;29;20045;-87
2023/01/18 04:15:54;;;;;;;16.97;13.17;;;-1.10;99.90;;;;;;4824071;29;20477;-87
2023/01/18 04:18:20;;;;;;;17.27;13.00;;;-1.10;99.90;;;;;;4844480;29;20038;-87
2023/01/18 04:20:47;;;;;;;18.27;13.43;;;-1.10;99.90;;;;;;4816703;29;20050;-87
2023/01/18 04:23:14;;;;;;;14.30;12.20;;;-1.10;99.90;;;;;;4841631;29;20760;-87
2023/01/18 04:25:39;;;;;;;17.43;12.90;;;-1.10;99.90;;;;;;4865373;29;20076;-88
2023/01/18 04:28:05;;;;;;;16.37;12.97;;;-1.10;99.90;;;;;;4818632;29;20514;-87
2023/01/18 04:30:31;;;;;;;19.07;13.03;;;-1.20;99.90;;;;;;4841863;29;20128;-88
2023/01/18 04:32:57;;;;;;;16.30;13.17;;;-1.10;99.90;;;;;;4856385;29;20128;-87
2023/01/18 04:35:23;;;;;;;16.20;13.60;;;-1.20;99.90;;;;;;4800222;29;20072;-87
2023/01/18 04:37:52;;;;;;;17.03;13.07;;;-1.10;99.90;;;;;;4844368;29;20484;-88
2023/01/18 04:40:18;;;;;;;17.40;12.77;;;-1.10;99.90;;;;;;4844212;29;20047;-87
2023/01/18 04:42:49;;;;;;;15.67;13.00;;;-1.10;99.90;;;;;;4828452;29;20097;-87
2023/01/18 04:45:17;;;;;;;18.30;13.85;;;-1.20;99.90;;;;;;4833523;29;20374;-86
2023/01/18 04:47:43;;;;;;;18.30;13.60;;;-1.10;99.90;;;;;;4838167;29;20045;-88
2023/01/18 04:50:10;;;;;;;17.93;13.53;;;-1.20;99.90;;;;;;4838922;29;20045;-87
2023/01/18 04:52:36;;;;;;;16.10;12.47;;;-1.10;99.90;;;;;;4813390;29;20479;-87
2023/01/18 04:55:02;;;;;;;19.43;13.57;;;-1.10;99.90;;;;;;4825253;29;20045;-88
2023/01/18 04:57:28;;;;;;;16.07;11.87;;;-1.10;99.90;;;;;;4825439;29;20054;-87
2023/01/18 04:59:54;;;;;;;16.03;12.87;;;-1.10;99.90;;;;;;4840461;29;20287;-87
2023/01/18 05:02:19;;;;;;;17.63;12.80;;;-1.10;99.90;;;;;;4840440;29;20110;-87
2023/01/18 05:04:45;;;;;;;18.60;13.03;;;-1.10;99.90;;;;;;4849758;29;20383;-87
2023/01/18 05:07:11;;;;;;;17.00;12.67;;;-1.10;99.90;;;;;;4858902;29;20051;-87
2023/01/18 05:09:37;;;;;;;17.97;12.70;;;-1.10;99.90;;;;;;4838318;29;20049;-87
2023/01/18 05:12:03;;;;;;;17.40;12.97;;;-1.10;99.90;;;;;;4831470;29;20037;-87
2023/01/18 05:14:28;;;;;;;15.80;12.27;;;-1.10;99.90;;;;;;4844489;29;20088;-91
2023/01/18 05:16:54;;;;;;;18.17;12.17;;;-1.10;99.90;;;;;;4825790;29;20050;-88
2023/01/18 05:19:20;;;;;;;17.57;11.90;;;-1.10;99.90;;;;;;4810225;29;20042;-86
2023/01/18 05:21:46;;;;;;;14.83;12.40;;;-1.00;99.90;;;;;;4843591;29;20398;-86
2023/01/18 05:24:11;;;;;;;17.70;12.43;;;-1.00;99.90;;;;;;4828690;29;20537;-87
2023/01/18 05:26:37;;;;;;;13.67;11.80;;;-1.10;99.90;;;;;;4828038;29;20042;-88
2023/01/18 05:29:03;;;;;;;15.57;11.70;;;-1.00;99.90;;;;;;4828461;29;20051;-89
2023/01/18 05:31:29;;;;;;;20.37;12.30;;;-1.00;99.90;;;;;;4840134;29;20049;-88
2023/01/18 05:33:57;;;;;;;15.07;11.63;;;-1.00;99.90;;;;;;4827800;29;20425;-87
2023/01/18 05:36:23;;;;;;;17.70;12.20;;;-1.00;99.90;;;;;;4848241;29;20132;-87
2023/01/18 05:38:49;;;;;;;15.67;12.70;;;-1.00;99.90;;;;;;4821936;29;20396;-87
2023/01/18 05:41:15;;;;;;;14.17;11.63;;;-1.00;99.90;;;;;;4848088;29;20045;-88
2023/01/18 05:43:41;;;;;;;16.90;12.03;;;-1.00;99.90;;;;;;4845884;29;20048;-87
2023/01/18 05:46:06;;;;;;;14.37;11.77;;;-1.00;99.90;;;;;;4866272;29;20077;-88
2023/01/18 05:48:32;;;;;;;15.90;12.40;;;-1.00;99.90;;;;;;4833633;29;20044;-87
2023/01/18 05:50:58;;;;;;;15.73;12.03;;;-1.00;99.90;;;;;;4866843;29;20045;-87
2023/01/18 05:53:24;;;;;;;16.23;12.23;;;-1.00;99.90;;;;;;4858847;29;20132;-88
2023/01/18 05:55:58;;;;;;;15.03;12.20;;;-1.00;99.90;;;;;;4854161;29;20076;-88
2023/01/18 05:58:24;;;;;;;16.43;12.10;;;-1.00;99.90;;;;;;4843599;29;20125;-88
2023/01/18 06:00:50;;;;;;;17.30;12.60;;;-1.00;99.90;;;;;;4812570;29;20045;-87
2023/01/18 06:03:16;;;;;;;16.37;12.40;;;-1.00;99.90;;;;;;4827966;29;20101;-87
2023/01/18 06:05:41;;;;;;;15.60;12.93;;;-1.00;99.90;;;;;;4812559;29;20478;-87
2023/01/18 06:08:07;;;;;;;15.97;12.90;;;-1.00;99.90;;;;;;4827913;29;20041;-87
2023/01/18 06:10:33;;;;;;;16.33;12.20;;;-1.00;99.90;;;;;;4842889;29;20535;-88
2023/01/18 06:12:58;;;;;;;17.30;13.03;;;-1.00;99.90;;;;;;4828271;29;20389;-87
2023/01/18 06:15:24;;;;;;;16.73;12.50;;;-1.00;99.90;;;;;;4861239;29;20498;-87
2023/01/18 06:17:50;;;;;;;15.00;11.83;;;-1.00;99.90;;;;;;4861484;29;20044;-87
2023/01/18 06:20:16;;;;;;;15.30;12.50;;;-1.00;99.90;;;;;;4850156;29;20385;-87
2023/01/18 06:22:44;;;;;;;14.30;11.97;;;-1.10;99.90;;;;;;4841296;29;20041;-87
2023/01/18 06:25:10;;;;;;;16.63;13.00;;;-1.10;99.90;;;;;;4808276;29;20054;-87
2023/01/18 06:27:37;;;;;;;17.60;13.30;;;-1.20;99.90;;;;;;4839713;29;20055;-87
2023/01/18 06:30:05;;;;;;;18.43;12.63;;;-1.20;99.90;;;;;;4861562;29;20049;-87
2023/01/18 06:32:31;;;;;;;17.13;13.90;;;-1.20;99.90;;;;;;4869528;29;20051;-87
2023/01/18 06:34:57;;;;;;;17.77;13.77;;;-1.20;99.90;;;;;;4836457;29;20639;-87
2023/01/18 06:37:24;;;;;;;17.70;12.90;;;-1.30;99.90;;;;;;4866732;29;20750;-87
2023/01/18 06:39:50;;;;;;;18.43;13.80;;;-1.30;99.90;;;;;;4878451;29;20468;-87
2023/01/18 06:42:16;;;;;;;19.30;13.97;;;-1.30;99.90;;;;;;4846623;29;20520;-87
2023/01/18 06:44:42;;;;;;;15.70;12.83;;;-1.40;99.90;;;;;;4844005;29;20049;-87
2023/01/18 06:47:08;;;;;;;17.30;13.53;;;-1.40;99.90;;;;;;4806961;29;20045;-87
2023/01/18 06:49:34;;;;;;;18.27;13.03;;;-1.40;99.90;;;;;;4848820;29;20485;-88
2023/01/18 06:52:00;;;;;;;17.87;13.00;;;-1.40;99.90;;;;;;4815564;29;20055;-86
2023/01/18 06:54:26;;;;;;;16.10;12.77;;;-1.40;99.90;;;;;;4829959;29;20041;-87
2023/01/18 06:56:52;;;;;;;15.27;13.07;;;-1.30;99.90;;;;;;4851074;29;20127;-87
2023/01/18 06:59:17;;;;;;;19.27;12.53;;;-1.30;99.90;;;;;;4848829;29;20053;-87
2023/01/18 07:01:43;;;;;;;19.33;13.10;;;-1.30;99.90;;;;;;4829928;29;20049;-87
2023/01/18 07:04:09;;;;;;;17.73;13.33;;;-1.30;99.90;;;;;;4830210;29;20082;-87
2023/01/18 07:06:35;;;;;;;17.17;12.70;;;-1.30;99.90;;;;;;4830001;29;20125;-87
2023/01/18 07:09:01;;;;;;;19.43;12.53;;;-1.30;99.90;;;;;;4840265;29;20065;-88
2023/01/18 07:11:27;;;;;;;14.50;11.67;;;-1.30;99.90;;;;;;4845915;29;20494;-87
2023/01/18 07:13:53;;;;;;;17.37;12.50;;;-1.30;99.90;;;;;;4830377;29;20092;-87
2023/01/18 07:16:22;;;;;;;17.07;12.40;;;-1.20;99.90;;;;;;4860297;29;20049;-89
2023/01/18 07:18:48;;;;;;;17.53;12.57;;;-1.10;99.90;;;;;;4836380;29;20763;-88
2023/01/18 07:21:16;;;;;;;16.60;11.93;;;-1.00;99.90;;;;;;4855822;29;20136;-88
2023/01/18 07:23:42;;;;;;;16.93;11.43;;;-1.10;99.90;;;;;;4853382;29;20083;-87
2023/01/18 07:26:11;;;;;;;16.97;12.37;;;-1.00;99.90;;;;;;4833331;29;20309;-87
2023/01/18 07:28:37;;;;;;;16.37;11.90;;;-1.00;99.90;;;;;;4830095;29;20052;-88
2023/01/18 07:31:05;;;;;;;16.50;12.40;;;-1.10;99.90;;;;;;4834957;29;20287;-88
2023/01/18 07:33:31;;;;;;;17.27;12.43;;;-1.10;99.90;;;;;;4812029;29;20478;-88
2023/01/18 07:35:57;;;;;;;16.27;12.23;;;-1.10;99.90;;;;;;4844453;29;20368;-88
2023/01/18 07:38:23;;;;;;;15.93;12.33;;;-1.10;99.90;;;;;;4852561;29;20094;-88
2023/01/18 07:40:49;;;;;;;14.80;12.17;;;-1.10;99.90;;;;;;4863369;29;20139;-88
2023/01/18 07:43:16;;;;;;;16.97;12.83;;;-1.10;99.90;;;;;;4835134;29;20630;-89
2023/01/18 07:45:50;;;;;;;18.60;13.37;;;-1.10;99.90;;;;;;4862175;29;20052;-89
2023/01/18 07:48:16;;;;;;;18.10;12.67;;;-1.10;99.90;;;;;;4831326;29;20064;-90
2023/01/18 07:50:42;;;;;;;19.53;12.10;;;-1.20;99.90;;;;;;4845297;29;20282;-88
2023/01/18 07:53:08;;;;;;;16.90;12.10;;;-1.10;99.90;;;;;;4814777;29;20116;-88
2023/01/18 07:55:34;;;;;;;19.33;12.27;;;-1.10;99.90;;;;;;4845160;29;20092;-88
2023/01/18 07:58:00;;;;;;;19.80;13.83;;;-1.10;99.90;;;;;;4861313;29;20045;-88
2023/01/18 08:00:27;;;;;;;18.37;13.17;;;-1.20;99.90;;;;;;4861520;29;20050;-90
2023/01/18 08:02:53;;;;;;;18.63;13.57;;;-1.20;99.90;;;;;;4859300;29;20078;-91
2023/01/18 08:05:22;;;;;;;17.43;13.10;;;-1.20;99.90;;;;;;4845982;29;20486;-90
2023/01/18 08:07:49;;;;;;;20.47;13.87;;;-1.10;99.90;;;;;;4867216;29;20045;-91
2023/01/18 08:10:16;;;;;;;20.27;13.90;;;-1.10;99.90;;;;;;4831016;29;20057;-88
2023/01/18 08:12:42;;;;;;;18.77;13.73;;;-1.10;99.90;;;;;;4854679;29;20045;-89
2023/01/18 08:15:08;;;;;;;20.40;14.50;;;-1.10;99.90;;;;;;4860069;29;20048;-91
2023/01/18 08:17:34;;;;;;;21.13;14.50;;;-1.10;99.90;;;;;;4847383;29;20049;-91
2023/01/18 08:20:00;;;;;;;21.40;14.47;;;-1.10;99.90;;;;;;4847169;29;20729;-92
2023/01/18 08:22:26;;;;;;;21.03;14.90;;;-1.10;99.90;;;;;;4841158;29;20072;-90
2023/01/18 08:24:52;;;;;;;24.27;15.40;;;-1.10;99.90;;;;;;4831312;29;20084;-88
2023/01/18 08:27:18;;;;;;;21.20;15.67;;;-1.10;99.90;;;;;;4829619;29;20058;-89
2023/01/18 08:29:45;;;;;;;20.10;15.30;;;-1.10;99.90;;;;;;4845060;29;20078;-91
2023/01/18 08:32:11;;;;;;;20.53;15.60;;;-1.00;99.90;;;;;;4832181;29;20037;-91
2023/01/18 08:34:37;;;;;;;19.13;15.10;;;-1.00;99.90;;;;;;4877870;29;20285;-92
2023/01/18 08:37:04;;;;;;;22.97;15.50;;;-1.00;99.90;;;;;;4816170;29;20073;-91
2023/01/18 08:39:30;;;;;;;22.37;16.10;;;-1.00;99.90;;;;;;4860113;29;20153;-91
2023/01/18 08:41:56;;;;;;;22.57;16.03;;;-1.00;99.90;;;;;;4831213;29;20318;-92
2023/01/18 08:44:22;;;;;;;22.80;15.13;;;-1.00;99.90;;;;;;4837264;29;20052;-90
2023/01/18 08:46:48;;;;;;;20.17;14.30;;;-0.90;99.90;;;;;;4829559;29;20814;-92
2023/01/18 08:49:15;;;;;;;22.50;15.37;;;-0.90;99.90;;;;;;4831950;29;20057;-88
2023/01/18 08:51:41;;;;;;;23.40;15.67;;;-0.80;99.90;;;;;;4874487;29;20037;-90
2023/01/18 08:54:07;;;;;;;22.63;14.43;;;-0.80;99.90;;;;;;4843487;29;20793;-91
2023/01/18 08:56:33;;;;;;;21.80;15.37;;;-0.70;99.90;;;;;;4830526;29;20401;-89
2023/01/18 08:59:01;;;;;;;24.00;15.53;;;-0.60;99.90;;;;;;4862059;29;20557;-92
2023/01/18 09:01:27;;;;;;;19.37;14.67;;;-0.50;99.90;;;;;;4831454;29;20285;-92
2023/01/18 09:03:54;;;;;;;21.73;15.03;;;-0.50;99.90;;;;;;4829750;29;20524;-91
2023/01/18 09:06:21;;;;;;;19.47;14.90;;;-0.40;99.90;;;;;;4829949;29;20299;-88
2023/01/18 09:08:47;;;;;;;20.00;14.67;;;-0.40;99.90;;;;;;4844645;29;20843;-91
2023/01/18 09:11:13;;;;;;;21.43;15.90;;;-0.30;99.90;;;;;;4832601;29;20124;-90
2023/01/18 09:13:42;;;;;;;22.83;15.47;;;-0.20;99.90;;;;;;4830452;29;20045;-92
2023/01/18 09:16:09;;;;;;;20.77;15.30;;;-0.20;99.90;;;;;;4861563;29;20049;-91
2023/01/18 09:18:37;;;;;;;19.33;14.80;;;-0.10;99.90;;;;;;4830500;29;20046;-90
2023/01/18 09:21:11;;;;;;;19.70;13.97;;;0.00;99.90;;;;;;4852764;29;20068;-88
2023/01/18 09:23:38;;;;;;;18.33;13.97;;;0.00;99.90;;;;;;4837166;29;20041;-89
2023/01/18 09:26:15;;;;;;;21.70;14.60;;;0.10;99.90;;;;;;4868802;29;20171;-92
2023/01/18 09:28:47;;;;;;;19.17;13.93;;;0.20;99.90;;;;;;4848133;29;20106;-92
2023/01/18 09:31:13;;;;;;;20.45;14.75;;;0.30;99.90;;;;;;4847664;29;20045;-90
2023/01/18 09:33:41;;;;;;;18.73;14.30;;;0.40;99.90;;;;;;4844958;29;20048;-91
2023/01/18 09:36:09;;;;;;;20.10;14.13;;;0.40;99.90;;;;;;4827544;29;20084;-90
2023/01/18 09:38:36;;;;;;;21.03;14.13;;;0.50;99.90;;;;;;4829278;29;20049;-89
2023/01/18 09:41:05;;;;;;;20.37;13.17;;;0.60;99.90;;;;;;4828624;29;20105;-88
2023/01/18 09:43:38;;;;;;;16.53;13.00;;;0.70;99.90;;;;;;4846605;29;20073;-89
2023/01/18 09:46:09;;;;;;;16.90;13.47;;;0.70;99.90;;;;;;4830302;29;20072;-90
2023/01/18 09:48:39;;;;;;;19.88;12.93;;;0.80;99.90;;;;;;4839775;29;20498;-91
2023/01/18 09:51:19;;;;;;;18.37;13.40;;;0.90;99.90;;;;;;4828476;29;20136;-91
2023/01/18 09:54:03;;;;;;;18.20;13.03;;;0.90;99.90;;;;;;4858448;29;20580;-91
2023/01/18 09:57:10;;;;;;;17.50;12.93;;;0.90;99.90;;;;;;4843882;29;20105;-91
2023/01/18 09:59:50;;;;;;;17.20;12.90;;;1.00;99.90;;;;;;4840643;29;20057;-89
2023/01/18 10:02:20;;;;;;;15.97;12.23;;;1.10;99.90;;;;;;4840211;29;20041;-89
2023/01/18 10:04:57;;;;;;;16.37;11.87;;;1.20;99.90;;;;;;4858775;29;20049;-87
2023/01/18 10:07:29;;;;;;;15.03;11.33;;;1.20;99.90;;;;;;4861716;29;20045;-91
2023/01/18 10:09:58;;;;;;;15.65;12.32;;;1.30;99.90;;;;;;4835619;29;20064;-89
2023/01/18 10:12:42;;;;;;;19.00;12.77;;;1.30;99.90;;;;;;4828019;29;20041;-89
2023/01/18 10:15:27;;;;;;;19.57;12.63;;;1.40;99.90;;;;;;4845333;29;20398;-89
2023/01/18 10:17:56;;;;;;;15.67;12.10;;;1.40;99.90;;;;;;4845003;29;20049;-89
2023/01/18 10:21:01;;;;;;;15.93;12.03;;;1.50;99.90;;;;;;4860920;29;20052;-89
2023/01/18 10:23:37;;;;;;;15.17;12.17;;;1.60;99.90;;;;;;4840644;29;20117;-89
2023/01/18 10:26:15;;;;;;;15.83;11.67;;;1.60;99.90;;;;;;4872455;29;20037;-89
2023/01/18 10:28:57;;;;;;;17.17;12.20;;;1.70;99.90;;;;;;4860397;29;20131;-89
2023/01/18 10:31:51;;;;;;;15.07;11.97;;;1.70;99.90;;;;;;4843170;29;20463;-88
2023/01/18 10:34:19;;;;;;;14.93;11.47;;;1.70;99.90;;;;;;4827788;29;20037;-88
2023/01/18 10:36:52;;;;;;;16.97;11.27;;;1.80;99.90;;;;;;4859152;29;20144;-87
2023/01/18 10:39:24;;;;;;;13.00;11.03;;;1.80;99.90;;;;;;4859824;29;20136;-88
2023/01/18 10:41:56;;;;;;;17.63;12.00;;;1.90;99.90;;;;;;4840911;29;20040;-89
2023/01/18 10:44:25;;;;;;;14.63;10.93;;;2.00;99.90;;;;;;4858316;29;20049;-89
2023/01/18 10:46:58;;;;;;;14.40;10.70;;;2.00;99.90;;;;;;4852314;29;20053;-87
2023/01/18 10:49:40;;;;;;;14.23;10.63;;;2.10;99.90;;;;;;4842566;29;20077;-88
2023/01/18 10:52:24;;;;;;;13.30;10.83;;;2.10;99.90;;;;;;4843131;29;20042;-90
2023/01/18 10:54:54;;;;;;;14.37;10.30;;;2.20;99.90;;;;;;4829940;29;20037;-89
2023/01/18 10:57:36;;;;;;;14.43;10.27;;;2.20;99.90;;;;;;4865628;29;20480;-88
2023/01/18 11:00:11;;;;;;;11.98;10.27;;;2.30;99.90;;;;;;4838536;29;20041;-90
2023/01/18 11:02:38;;;;;;;13.50;10.10;;;2.30;99.90;;;;;;4839607;29;20759;-89
2023/01/18 11:05:51;;;;;;;12.60;10.43;;;2.40;99.90;;;;;;4846392;29;20051;-88
2023/01/18 11:08:31;;;;;;;12.67;9.90;;;2.40;99.90;;;;;;4833237;29;20080;-88
2023/01/18 11:14:30;;;;;;;17.43;10.90;;;2.60;99.90;;;;;;4844971;29;20423;-90
2023/01/18 11:17:10;;;;;;;12.20;9.15;;;2.60;99.90;;;;;;4840893;29;20045;-89
2023/01/18 11:19:37;;;;;;;15.13;10.50;;;2.60;99.90;;;;;;4861168;29;20044;-89
2023/01/18 11:22:11;;;;;;;12.93;9.97;;;2.70;99.90;;;;;;4830317;29;20096;-89
2023/01/18 11:24:37;;;;;;;13.57;10.00;;;2.70;99.90;;;;;;4845581;29;20070;-90
2023/01/18 11:27:10;;;;;;;13.87;9.43;;;2.80;99.90;;;;;;4830250;29;20490;-91
2023/01/18 11:29:41;;;;;;;13.67;8.83;;;2.80;99.90;;;;;;4862243;29;20057;-91
2023/01/18 11:32:25;;;;;;;13.50;8.77;;;2.80;99.90;;;;;;4835380;29;20041;-90
2023/01/18 11:34:53;;;;;;;14.03;9.93;;;2.90;99.90;;;;;;4861632;29;20053;-90
2023/01/18 11:37:38;;;;;;;13.50;8.97;;;2.90;99.90;;;;;;4846280;29;20050;-90
2023/01/18 11:40:20;;;;;;;11.93;8.63;;;2.90;99.90;;;;;;4846358;29;20045;-90
2023/01/18 11:42:52;;;;;;;12.02;9.07;;;3.00;99.90;;;;;;4848571;29;20041;-89
2023/01/18 11:45:21;;;;;;;11.87;8.00;;;3.00;99.90;;;;;;4838825;29;20049;-88
2023/01/18 11:47:50;;;;;;;12.77;8.10;;;3.00;99.90;;;;;;4842336;29;20141;-89
2023/01/18 11:50:34;;;;;;;11.90;8.90;;;3.00;99.90;;;;;;4843550;29;20049;-89
2023/01/18 11:53:10;;;;;;;12.13;8.13;;;3.00;99.90;;;;;;4856534;29;20045;-89
2023/01/18 11:55:46;;;;;;;10.43;7.50;;;3.10;99.90;;;;;;4844779;29;20128;-88
2023/01/18 11:58:28;;;;;;;10.93;7.83;;;3.10;99.90;;;;;;4845335;29;20081;-89
2023/01/18 12:01:22;;;;;;;13.57;7.85;;;3.20;99.90;;;;;;4817929;29;20129;-88
2023/01/18 12:04:25;;;;;;;10.87;7.63;;;3.20;99.90;;;;;;4850972;29;20049;-89
2023/01/18 12:07:06;;;;;;;11.07;7.97;;;3.20;99.90;;;;;;4848963;29;20077;-88
2023/01/18 12:09:46;;;;;;;11.73;7.43;;;3.30;99.90;;;;;;4860001;29;20140;-89
2023/01/18 12:12:55;;;;;;;11.73;7.53;;;3.40;99.90;;;;;;4833505;29;20050;-89
2023/01/18 12:15:55;;;;;;;9.30;7.70;;;3.40;99.90;;;;;;4857234;29;20095;-88
2023/01/18 12:19:05;;;;;;;9.83;7.03;;;3.40;99.90;;;;;;4842203;29;20110;-88
2023/01/18 12:21:43;;;;;;;8.33;6.97;;;3.50;99.90;;;;;;4833630;29;20057;-90
2023/01/18 12:24:36;;;;;;;13.73;7.53;;;3.50;99.90;;;;;;4862976;29;20058;-90
2023/01/18 12:27:37;;;;;;;11.00;6.97;;;3.50;99.90;;;;;;4823151;29;20037;-90
2023/01/18 12:30:31;;;;;;;12.10;7.20;;;3.50;99.90;;;;;;4835717;29;20046;-90
2023/01/18 12:33:27;;;;;;;12.03;6.73;;;3.50;99.90;;;;;;4844120;29;20078;-90
2023/01/18 12:36:07;;;;;;;13.30;6.93;;;3.60;99.90;;;;;;4847678;29;20768;-90
2023/01/18 12:38:34;;;;;;;10.27;6.87;;;3.60;99.90;;;;;;4848311;29;20077;-90
2023/01/18 12:41:10;;;;;;;9.93;6.87;;;3.60;99.90;;;;;;4837907;29;20380;-89
2023/01/18 12:43:48;;;;;;;11.67;7.50;;;3.70;99.90;;;;;;4841267;29;20060;-89
2023/01/18 12:46:21;;;;;;;11.27;7.30;;;3.70;99.90;;;;;;4860076;29;20049;-89
2023/01/18 12:48:51;;;;;;;8.10;6.50;;;3.70;99.90;;;;;;4831883;29;20048;-88
2023/01/18 12:51:21;;;;;;;10.87;6.20;;;3.70;99.90;;;;;;4844483;29;20369;-89
2023/01/18 12:53:58;;;;;;;10.70;6.00;;;3.70;99.90;;;;;;4845137;29;20046;-88
2023/01/18 12:56:33;;;;;;;9.93;6.77;;;3.70;99.90;;;;;;4848065;29;20048;-88
2023/01/18 12:59:04;;;;;;;9.07;6.50;;;3.70;99.90;;;;;;4844906;29;20117;-89
2023/01/18 13:01:37;;;;;;;10.37;6.63;;;3.80;99.90;;;;;;4828448;29;20054;-89
2023/01/18 13:04:28;;;;;;;8.43;6.57;;;3.90;99.90;;;;;;4839434;29;20387;-87
2023/01/18 13:07:00;;;;;;;9.73;6.40;;;3.80;99.90;;;;;;4852719;29;20064;-90
2023/01/18 13:09:33;;;;;;;9.60;6.95;;;3.90;99.90;;;;;;4844265;29;20439;-89
2023/01/18 13:12:03;;;;;;;9.07;6.57;;;3.90;99.90;;;;;;4875222;29;20801;-89
2023/01/18 13:14:37;;;;;;;9.77;5.93;;;3.90;99.90;;;;;;4838563;29;20054;-89
2023/01/18 13:17:34;;;;;;;7.90;6.43;;;3.90;99.90;;;;;;4856580;29;20049;-90
2023/01/18 13:20:16;;;;;;;11.30;7.17;;;3.90;99.90;;;;;;4841015;29;20511;-90
2023/01/18 13:22:47;;;;;;;9.40;6.38;;;3.90;99.90;;;;;;4873207;29;20041;-88
2023/01/18 13:25:35;;;;;;;8.02;6.30;;;3.90;99.90;;;;;;4838193;29;20072;-88
2023/01/18 13:28:12;;;;;;;8.27;6.20;;;3.90;99.90;;;;;;4840634;29;20098;-90
2023/01/18 13:31:05;;;;;;;9.90;6.43;;;3.90;99.90;;;;;;4869045;29;20486;-88
2023/01/18 13:33:40;;;;;;;9.87;6.10;;;4.00;99.90;;;;;;4836907;29;20057;-88